Time;durP1;ratioP1;P1;durP2;ratioP2;P2;SDS_P1;SDS_P2;PMS_P1;PMS_P2;Temp;Humidity;BMP_temperature;BMP_pressure;BME280_temperature;BME280_humidity;BME280_pressure;Samples;Min_cycle;Max_cycle;Signal;HPM_P1;HPM_P2
2021/12/14 00:01:09;;;;;;;6.22;3.42;;;8.40;99.90;;;;;;6308156;22;20024;-85
2021/12/14 00:03:36;;;;;;;5.25;2.65;;;8.40;99.90;;;;;;6285874;22;20017;-85
2021/12/14 00:06:02;;;;;;;4.47;2.38;;;8.40;99.90;;;;;;6182911;23;20009;-85
2021/12/14 00:08:35;;;;;;;9.32;3.22;;;8.40;99.90;;;;;;6314615;22;20454;-85
2021/12/14 00:15:57;;;;;;;7.35;4.05;;;8.40;99.90;;;;;;6314513;22;20024;-85
2021/12/14 00:18:23;;;;;;;3.85;2.30;;;8.40;99.90;;;;;;6288158;22;20021;-85
2021/12/14 00:21:04;;;;;;;3.95;2.38;;;8.40;99.90;;;;;;6289732;22;20020;-85
2021/12/14 00:26:17;;;;;;;9.25;4.32;;;8.40;99.90;;;;;;6315956;22;20399;-85
2021/12/14 00:28:43;;;;;;;6.72;3.95;;;8.40;99.90;;;;;;6290264;22;20013;-85
2021/12/14 00:31:15;;;;;;;3.20;2.10;;;8.40;99.90;;;;;;6289933;22;20009;-84
2021/12/14 00:33:43;;;;;;;3.70;2.15;;;8.40;99.90;;;;;;6264533;22;20110;-85
2021/12/14 00:36:10;;;;;;;6.00;3.40;;;8.40;99.90;;;;;;6290263;22;20438;-85
2021/12/14 00:38:37;;;;;;;1.67;1.27;;;9.10;99.90;;;;;;6159568;22;20041;-85
2021/12/14 00:41:13;;;;;;;3.92;2.60;;;8.40;99.90;;;;;;6290127;22;20483;-85
2021/12/14 00:43:39;;;;;;;5.55;3.03;;;8.40;99.90;;;;;;6290723;22;20017;-85
2021/12/14 00:46:06;;;;;;;4.60;2.97;;;8.30;99.90;;;;;;6315946;22;20009;-85
2021/12/14 00:48:32;;;;;;;6.15;3.53;;;8.40;99.90;;;;;;6316049;22;20013;-85
2021/12/14 00:50:59;;;;;;;5.10;2.58;;;8.30;99.90;;;;;;6316403;22;20012;-85
2021/12/14 00:53:26;;;;;;;3.53;2.17;;;8.30;99.90;;;;;;6289833;22;20017;-85
2021/12/14 00:55:53;;;;;;;1.20;0.90;;;8.30;99.90;;;;;;6315872;22;20024;-85
2021/12/14 00:58:20;;;;;;;3.40;2.17;;;8.30;99.90;;;;;;6289601;22;20020;-85
2021/12/14 01:00:50;;;;;;;6.70;3.67;;;8.30;99.90;;;;;;6290609;22;20027;-86
2021/12/14 01:03:15;;;;;;;5.03;2.10;;;8.30;99.90;;;;;;6290196;22;20020;-85
2021/12/14 01:05:46;;;;;;;5.15;2.10;;;8.30;99.90;;;;;;6289853;22;20012;-85
2021/12/14 01:08:15;;;;;;;4.82;2.63;;;8.30;99.90;;;;;;6289503;22;20046;-85
2021/12/14 01:10:52;;;;;;;4.15;2.28;;;8.30;99.90;;;;;;6315852;22;20051;-86
2021/12/14 01:13:23;;;;;;;6.18;3.03;;;8.30;99.90;;;;;;6289889;22;20020;-85
2021/12/14 01:16:14;;;;;;;5.20;3.78;;;8.30;99.90;;;;;;6290337;22;20025;-85
2021/12/14 01:21:42;;;;;;;5.25;2.40;;;8.30;99.90;;;;;;6183958;22;20021;-85
2021/12/14 01:24:21;;;;;;;7.53;3.67;;;8.20;99.90;;;;;;6316356;22;20032;-86
2021/12/14 01:26:47;;;;;;;5.97;3.90;;;8.20;99.90;;;;;;6315998;22;20012;-86
2021/12/14 01:29:15;;;;;;;3.88;2.70;;;8.30;99.90;;;;;;6289691;22;20023;-85
2021/12/14 01:31:43;;;;;;;8.20;1.90;;;8.30;99.90;;;;;;6290213;22;20044;-86
2021/12/14 01:34:16;;;;;;;7.07;3.33;;;8.20;99.90;;;;;;6289549;22;20017;-85
2021/12/14 01:36:46;;;;;;;3.67;2.15;;;8.20;99.90;;;;;;6315825;22;20035;-85
2021/12/14 01:42:01;;;;;;;3.90;2.65;;;8.20;99.90;;;;;;6315389;22;20025;-85
2021/12/14 01:44:30;;;;;;;0.75;0.75;;;8.20;99.90;;;;;;6289969;22;20445;-85
2021/12/14 01:47:08;;;;;;;1.92;1.42;;;8.20;99.90;;;;;;6315106;22;20017;-85
2021/12/14 01:49:34;;;;;;;2.65;2.05;;;8.20;99.90;;;;;;6290083;22;20035;-85
2021/12/14 01:52:05;;;;;;;8.10;4.07;;;8.20;99.90;;;;;;6290055;22;20509;-85
2021/12/14 01:54:36;;;;;;;2.85;1.60;;;8.20;99.90;;;;;;6315292;22;20438;-85
2021/12/14 01:57:07;;;;;;;11.00;3.83;;;8.20;99.90;;;;;;6289210;22;20109;-86
2021/12/14 01:59:36;;;;;;;6.07;3.97;;;8.20;99.90;;;;;;6159199;22;20027;-86
2021/12/14 02:02:20;;;;;;;6.88;2.85;;;8.20;99.90;;;;;;6183791;22;20342;-85
2021/12/14 02:04:49;;;;;;;8.95;4.47;;;8.20;99.90;;;;;;6289446;22;20013;-86
2021/12/14 02:07:16;;;;;;;3.55;2.33;;;8.20;99.90;;;;;;6158767;22;20022;-86
2021/12/14 02:09:43;;;;;;;7.57;3.22;;;8.10;99.90;;;;;;6290115;22;20008;-85
2021/12/14 02:12:17;;;;;;;8.63;4.38;;;8.20;99.90;;;;;;6289091;22;20017;-85
2021/12/14 02:14:45;;;;;;;3.25;2.00;;;8.20;99.90;;;;;;6289327;22;20023;-86
2021/12/14 02:17:16;;;;;;;4.22;2.80;;;8.20;99.90;;;;;;6289534;22;20023;-85
2021/12/14 02:19:42;;;;;;;8.52;4.47;;;8.20;99.90;;;;;;6289114;22;20145;-85
2021/12/14 02:22:10;;;;;;;5.35;2.85;;;8.20;99.90;;;;;;6289008;22;20047;-85
2021/12/14 02:24:41;;;;;;;6.70;3.90;;;8.20;99.90;;;;;;6159031;22;20327;-85
2021/12/14 02:27:06;;;;;;;3.20;2.03;;;8.20;99.90;;;;;;6315765;22;20012;-86
2021/12/14 02:29:42;;;;;;;11.48;5.07;;;8.20;99.90;;;;;;6289167;22;20287;-85
2021/12/14 02:32:15;;;;;;;10.35;5.10;;;8.20;99.90;;;;;;6288937;22;20021;-85
2021/12/14 02:34:53;;;;;;;11.20;6.50;;;8.20;99.90;;;;;;6289248;22;20276;-85
2021/12/14 02:37:33;;;;;;;5.35;2.50;;;8.30;99.90;;;;;;6289011;22;20034;-85
2021/12/14 02:40:17;;;;;;;5.00;3.05;;;8.30;99.90;;;;;;6159047;22;20012;-85
2021/12/14 02:42:43;;;;;;;4.85;2.03;;;8.30;99.90;;;;;;6289263;22;20204;-85
2021/12/14 02:45:09;;;;;;;9.60;4.30;;;8.30;99.90;;;;;;6288870;22;20012;-85
2021/12/14 02:47:35;;;;;;;9.23;5.60;;;8.30;99.90;;;;;;6288706;22;20020;-85
2021/12/14 02:50:01;;;;;;;3.53;2.85;;;8.30;99.90;;;;;;6158678;22;20015;-85
2021/12/14 02:52:34;;;;;;;10.15;4.75;;;8.30;99.90;;;;;;6289027;22;20096;-85
2021/12/14 02:55:13;;;;;;;5.50;3.65;;;8.30;99.90;;;;;;6289333;22;20096;-85
2021/12/14 02:57:43;;;;;;;4.60;2.65;;;8.20;99.90;;;;;;6288728;22;20023;-86
2021/12/14 03:00:17;;;;;;;3.72;2.42;;;8.20;99.90;;;;;;6314349;22;20020;-85
2021/12/14 03:02:43;;;;;;;10.80;4.45;;;8.20;99.90;;;;;;6289369;22;20016;-85
2021/12/14 03:05:32;;;;;;;6.10;3.53;;;8.20;99.90;;;;;;6288929;22;20016;-85
2021/12/14 03:08:04;;;;;;;4.25;2.35;;;8.20;99.90;;;;;;6289228;22;20073;-85
2021/12/14 03:10:39;;;;;;;12.38;5.32;;;8.20;99.90;;;;;;6288921;22;20442;-85
2021/12/14 03:13:10;;;;;;;5.50;3.58;;;8.20;99.90;;;;;;6315567;22;20017;-85
2021/12/14 03:15:52;;;;;;;7.93;3.20;;;8.20;99.90;;;;;;6314877;22;20051;-85
2021/12/14 03:18:26;;;;;;;6.30;4.13;;;8.20;99.90;;;;;;6287998;22;20043;-86
2021/12/14 03:21:00;;;;;;;10.93;3.83;;;8.20;99.90;;;;;;6288553;22;20436;-85
2021/12/14 03:23:57;;;;;;;7.75;3.42;;;8.20;99.90;;;;;;6288832;22;20017;-85
2021/12/14 03:26:31;;;;;;;4.32;2.47;;;8.20;99.90;;;;;;6258317;22;20109;-85
2021/12/14 03:29:03;;;;;;;5.50;3.53;;;8.20;99.90;;;;;;6288607;22;20031;-85
2021/12/14 03:31:36;;;;;;;10.38;3.83;;;8.20;99.90;;;;;;6158618;22;20031;-85
2021/12/14 03:34:10;;;;;;;10.07;5.32;;;8.20;99.90;;;;;;6288472;22;20015;-86
2021/12/14 03:36:44;;;;;;;3.20;2.20;;;8.20;99.90;;;;;;6314809;22;20012;-85
2021/12/14 03:39:18;;;;;;;10.90;5.95;;;8.20;99.90;;;;;;6314709;22;20019;-85
2021/12/14 03:41:45;;;;;;;4.53;3.00;;;8.20;99.90;;;;;;6288561;22;20319;-85
2021/12/14 03:44:18;;;;;;;18.42;9.10;;;8.20;99.90;;;;;;6288642;22;20061;-85
2021/12/14 03:46:50;;;;;;;4.18;1.98;;;8.20;99.90;;;;;;6288600;22;20020;-85
2021/12/14 03:49:17;;;;;;;3.25;2.22;;;8.10;99.90;;;;;;6289270;22;20380;-85
2021/12/14 03:51:44;;;;;;;10.18;4.68;;;8.20;99.90;;;;;;6314375;22;20013;-85
2021/12/14 03:54:13;;;;;;;10.82;6.97;;;8.10;99.90;;;;;;6288406;22;20058;-86
2021/12/14 03:56:38;;;;;;;9.10;4.53;;;8.10;99.90;;;;;;6289957;22;20013;-85
2021/12/14 03:59:04;;;;;;;3.47;2.58;;;8.10;99.90;;;;;;6316248;22;20065;-85
2021/12/14 04:01:35;;;;;;;8.90;4.65;;;8.20;99.90;;;;;;6290063;22;20040;-84
2021/12/14 04:04:11;;;;;;;4.43;2.47;;;8.10;99.90;;;;;;6290641;22;20017;-85
2021/12/14 04:06:38;;;;;;;13.75;4.55;;;8.10;99.90;;;;;;6290667;22;20073;-85
2021/12/14 04:09:07;;;;;;;17.38;7.93;;;8.20;99.90;;;;;;6167132;22;20073;-85
2021/12/14 04:11:33;;;;;;;11.95;6.20;;;8.10;99.90;;;;;;6290277;22;20020;-85
2021/12/14 04:13:59;;;;;;;12.85;7.32;;;8.10;99.90;;;;;;6290458;22;20017;-85
2021/12/14 04:16:25;;;;;;;5.57;2.85;;;8.10;99.90;;;;;;6290730;22;20035;-85
2021/12/14 04:18:52;;;;;;;10.80;6.15;;;8.10;99.90;;;;;;6291061;22;20017;-85
2021/12/14 04:21:19;;;;;;;3.92;2.22;;;8.00;99.90;;;;;;6289965;22;20016;-85
2021/12/14 04:23:49;;;;;;;13.05;5.45;;;8.00;99.90;;;;;;6159489;22;20406;-85
2021/12/14 04:26:16;;;;;;;6.03;2.95;;;7.90;99.90;;;;;;6290593;22;20012;-85
2021/12/14 04:28:47;;;;;;;7.82;4.18;;;8.00;99.90;;;;;;6316391;22;20012;-85
2021/12/14 04:31:14;;;;;;;9.88;5.10;;;8.00;99.90;;;;;;6159530;22;20327;-85
2021/12/14 04:33:42;;;;;;;5.85;3.35;;;7.90;99.90;;;;;;6290322;22;20017;-84
2021/12/14 04:36:11;;;;;;;7.43;4.13;;;8.00;99.90;;;;;;6159412;22;20116;-85
2021/12/14 04:38:47;;;;;;;13.20;7.00;;;7.90;99.90;;;;;;6316187;22;20021;-85
2021/12/14 04:52:10;;;;;;;6.72;3.90;;;7.90;99.90;;;;;;6174415;22;20416;-85
2021/12/14 04:54:41;;;;;;;9.88;5.10;;;7.90;99.90;;;;;;6289966;22;20350;-85
2021/12/14 04:57:22;;;;;;;11.00;3.13;;;7.90;99.90;;;;;;6288883;22;20012;-85
2021/12/14 04:59:49;;;;;;;9.20;4.95;;;7.90;99.90;;;;;;6289672;22;20057;-85
2021/12/14 05:02:18;;;;;;;4.82;3.10;;;7.90;99.90;;;;;;6288487;22;20027;-85
2021/12/14 05:04:44;;;;;;;3.10;1.88;;;7.90;99.90;;;;;;6183923;22;20012;-85
2021/12/14 05:09:53;;;;;;;13.13;6.25;;;7.90;99.90;;;;;;6315669;22;20107;-85
2021/12/14 05:12:30;;;;;;;13.88;6.93;;;7.90;99.90;;;;;;6289414;22;20028;-85
2021/12/14 05:14:59;;;;;;;8.85;4.68;;;7.90;99.90;;;;;;6143176;23;20048;-85
2021/12/14 05:17:31;;;;;;;7.97;3.88;;;7.90;99.90;;;;;;6153918;22;20320;-85
2021/12/14 05:19:56;;;;;;;4.50;2.40;;;8.00;99.90;;;;;;6183739;23;20028;-85
2021/12/14 05:22:26;;;;;;;8.68;4.97;;;8.00;99.90;;;;;;6159113;23;20350;-85
2021/12/14 05:24:55;;;;;;;5.32;2.60;;;8.50;99.90;;;;;;6159233;23;20084;-85
2021/12/14 05:27:29;;;;;;;8.13;3.33;;;8.00;99.90;;;;;;6183577;23;20013;-85
2021/12/14 05:30:05;;;;;;;3.72;2.92;;;8.00;99.90;;;;;;6183696;22;20438;-85
2021/12/14 05:32:31;;;;;;;5.75;3.28;;;7.90;99.90;;;;;;6159106;22;20110;-85
2021/12/14 05:34:56;;;;;;;4.07;3.22;;;7.90;99.90;;;;;;6159423;22;20052;-85
2021/12/14 05:37:27;;;;;;;5.45;3.42;;;8.00;99.90;;;;;;6158987;22;20025;-85
2021/12/14 05:39:59;;;;;;;8.02;4.28;;;8.00;99.90;;;;;;6159112;22;20044;-85
2021/12/14 05:45:15;;;;;;;12.00;6.68;;;8.00;99.90;;;;;;6183880;23;20039;-85
2021/12/14 05:47:47;;;;;;;10.88;5.63;;;8.00;99.90;;;;;;6158932;22;20013;-85
2021/12/14 05:50:16;;;;;;;2.88;1.85;;;8.00;99.90;;;;;;6184171;22;20344;-85
2021/12/14 05:52:41;;;;;;;4.22;2.33;;;8.00;99.90;;;;;;6183859;22;20027;-85
2021/12/14 05:55:07;;;;;;;6.43;3.40;;;8.00;99.90;;;;;;6183988;22;20016;-85
2021/12/14 05:57:34;;;;;;;10.80;3.95;;;8.00;99.90;;;;;;6158779;23;20477;-85
2021/12/14 06:00:00;;;;;;;8.55;5.03;;;8.00;99.90;;;;;;6158952;23;20237;-85
2021/12/14 06:02:25;;;;;;;6.72;4.45;;;8.00;99.90;;;;;;6159084;23;20446;-85
2021/12/14 06:04:53;;;;;;;10.10;5.55;;;7.90;99.90;;;;;;6159193;23;20013;-85
2021/12/14 06:07:20;;;;;;;4.10;3.30;;;8.00;99.90;;;;;;6158650;23;20012;-85
2021/12/14 06:09:48;;;;;;;9.77;5.90;;;8.00;99.90;;;;;;6158923;22;20009;-85
2021/12/14 06:12:21;;;;;;;9.98;5.85;;;8.00;99.90;;;;;;6183815;22;20049;-85
2021/12/14 06:14:55;;;;;;;4.90;2.65;;;8.00;99.90;;;;;;6159078;22;20017;-85
2021/12/14 06:17:31;;;;;;;15.23;6.60;;;8.00;99.90;;;;;;6158357;22;20024;-85
2021/12/14 06:20:09;;;;;;;3.92;2.53;;;8.00;99.90;;;;;;6183509;23;20056;-85
2021/12/14 06:22:36;;;;;;;18.90;6.07;;;8.00;99.90;;;;;;6181118;22;20017;-84
2021/12/14 06:25:20;;;;;;;7.15;4.30;;;7.90;99.90;;;;;;6158615;22;20012;-85
2021/12/14 06:27:47;;;;;;;9.70;3.65;;;8.00;99.90;;;;;;6158376;22;20044;-85
2021/12/14 06:30:23;;;;;;;2.80;2.15;;;8.00;99.90;;;;;;6158632;22;20456;-86
2021/12/14 06:32:56;;;;;;;5.38;3.42;;;8.00;99.90;;;;;;6158888;22;20020;-86
2021/12/14 06:35:36;;;;;;;10.65;5.18;;;7.90;99.90;;;;;;6158954;23;20013;-86
2021/12/14 06:40:49;;;;;;;8.02;3.70;;;8.00;99.90;;;;;;6183508;23;20104;-86
2021/12/14 06:43:19;;;;;;;17.40;9.30;;;8.00;99.90;;;;;;6158450;23;20023;-85
2021/12/14 06:45:51;;;;;;;10.13;5.22;;;8.00;99.90;;;;;;6158778;22;20009;-85
2021/12/14 06:48:20;;;;;;;6.80;4.40;;;8.00;99.90;;;;;;6158677;23;20012;-86
2021/12/14 06:50:53;;;;;;;10.60;5.90;;;8.00;99.90;;;;;;6158833;22;20021;-85
2021/12/14 06:53:20;;;;;;;6.20;3.72;;;8.00;99.90;;;;;;6158386;22;20446;-86
2021/12/14 06:55:50;;;;;;;13.68;8.75;;;8.10;99.90;;;;;;6158715;22;20495;-86
2021/12/14 06:58:19;;;;;;;1.10;1.00;;;8.00;99.90;;;;;;6157928;23;20092;-86
2021/12/14 07:01:13;;;;;;;10.10;6.40;;;8.00;99.90;;;;;;6157774;22;20069;-85
2021/12/14 07:03:43;;;;;;;18.88;9.18;;;8.00;99.90;;;;;;6157704;22;20058;-86
2021/12/14 07:06:12;;;;;;;2.42;1.77;;;8.00;99.90;;;;;;6158432;23;20097;-86
2021/12/14 07:08:38;;;;;;;9.50;5.70;;;8.00;99.90;;;;;;6183234;22;20462;-86
2021/12/14 07:11:04;;;;;;;13.88;7.07;;;8.00;99.90;;;;;;6158776;22;20012;-86
2021/12/14 07:13:38;;;;;;;22.70;8.80;;;8.00;99.90;;;;;;6158221;22;20342;-86
2021/12/14 07:16:19;;;;;;;9.43;4.65;;;8.00;99.90;;;;;;6158143;23;20017;-86
2021/12/14 07:18:47;;;;;;;7.80;4.40;;;8.00;99.90;;;;;;6182902;22;20502;-87
2021/12/14 07:21:12;;;;;;;20.30;10.57;;;8.00;99.90;;;;;;6158421;22;20027;-88
2021/12/14 07:23:38;;;;;;;10.25;6.20;;;8.00;99.90;;;;;;6182858;23;20021;-87
2021/12/14 07:26:11;;;;;;;10.15;5.78;;;8.00;99.90;;;;;;6149190;23;20017;-88
2021/12/14 07:28:41;;;;;;;6.43;4.07;;;8.00;99.90;;;;;;6183644;23;20368;-90
2021/12/14 07:31:19;;;;;;;8.70;4.90;;;8.00;99.90;;;;;;6159516;23;20042;-89
2021/12/14 07:33:57;;;;;;;8.52;4.65;;;8.00;99.90;;;;;;6159531;22;20478;-90
2021/12/14 07:36:26;;;;;;;2.42;2.08;;;8.00;99.90;;;;;;6159861;23;20025;-90
2021/12/14 07:39:03;;;;;;;9.52;5.63;;;8.00;99.90;;;;;;6159273;22;20017;-90
2021/12/14 07:41:43;;;;;;;7.43;4.80;;;8.00;99.90;;;;;;6159709;22;20020;-89
2021/12/14 07:44:27;;;;;;;8.65;4.68;;;8.00;99.90;;;;;;6159297;23;20020;-89
2021/12/14 07:47:00;;;;;;;14.88;8.48;;;7.90;99.90;;;;;;6158559;22;20017;-88
2021/12/14 07:49:42;;;;;;;5.05;3.03;;;8.00;99.90;;;;;;6158977;22;20024;-89
2021/12/14 07:52:07;;;;;;;4.90;3.47;;;7.90;99.90;;;;;;6159298;22;20456;-89
2021/12/14 07:54:40;;;;;;;10.90;6.45;;;7.90;99.90;;;;;;6158416;23;20020;-89
2021/12/14 07:57:12;;;;;;;9.20;4.15;;;8.00;99.90;;;;;;6158610;22;20024;-89
2021/12/14 07:59:52;;;;;;;10.52;5.28;;;8.00;99.90;;;;;;6158559;22;20040;-88
2021/12/14 08:02:22;;;;;;;4.90;3.05;;;7.90;99.90;;;;;;6158837;22;20160;-88
2021/12/14 08:04:54;;;;;;;3.33;2.47;;;7.90;99.90;;;;;;6158574;22;20009;-88
2021/12/14 08:07:27;;;;;;;3.03;2.30;;;8.00;99.90;;;;;;6157076;23;20021;-87
2021/12/14 08:10:06;;;;;;;11.80;6.85;;;8.00;99.90;;;;;;6158701;22;20099;-89
2021/12/14 08:12:47;;;;;;;13.98;2.28;;;8.00;99.90;;;;;;6158685;23;20021;-88
2021/12/14 08:15:39;;;;;;;16.95;8.70;;;8.00;99.90;;;;;;6157442;23;20016;-87
2021/12/14 08:18:23;;;;;;;5.65;3.25;;;8.00;99.90;;;;;;6155957;22;20020;-87
2021/12/14 08:21:03;;;;;;;3.00;1.80;;;8.00;99.90;;;;;;6156288;23;20031;-87
2021/12/14 08:23:29;;;;;;;6.03;2.88;;;8.00;99.90;;;;;;6156605;23;20056;-88
2021/12/14 08:26:01;;;;;;;14.45;8.02;;;8.00;99.90;;;;;;6156985;23;20441;-87
2021/12/14 08:28:26;;;;;;;4.07;2.47;;;8.00;99.90;;;;;;6156247;22;20020;-87
2021/12/14 08:31:00;;;;;;;6.20;3.50;;;8.70;99.90;;;;;;6155767;23;20016;-87
2021/12/14 08:33:28;;;;;;;8.25;5.30;;;8.10;99.90;;;;;;6156328;22;20476;-87
2021/12/14 08:35:58;;;;;;;6.25;3.80;;;8.10;99.90;;;;;;6156838;23;20511;-90
2021/12/14 08:38:24;;;;;;;8.35;4.57;;;8.10;99.90;;;;;;6181487;22;20016;-89
2021/12/14 08:40:57;;;;;;;12.30;6.75;;;8.10;99.90;;;;;;6157288;22;20020;-89
2021/12/14 08:43:32;;;;;;;8.02;4.18;;;8.10;99.90;;;;;;6157822;23;20020;-89
2021/12/14 08:46:06;;;;;;;2.25;1.63;;;8.10;99.90;;;;;;6158633;22;20021;-89
2021/12/14 08:48:36;;;;;;;13.48;7.30;;;8.10;99.90;;;;;;6158204;23;20009;-88
2021/12/14 08:51:14;;;;;;;4.32;2.70;;;8.20;99.90;;;;;;6181137;22;20247;-88
2021/12/14 08:53:50;;;;;;;2.08;1.48;;;8.20;99.90;;;;;;6159705;22;20351;-88
2021/12/14 08:56:18;;;;;;;12.73;6.82;;;8.20;99.90;;;;;;6182161;22;20104;-86
2021/12/14 08:58:46;;;;;;;2.63;2.30;;;8.10;99.90;;;;;;6182017;22;20342;-86
2021/12/14 09:01:18;;;;;;;2.58;1.75;;;8.20;99.90;;;;;;6159156;23;20449;-86
2021/12/14 09:03:56;;;;;;;2.00;1.27;;;8.20;99.90;;;;;;6157922;22;20020;-86
2021/12/14 09:06:28;;;;;;;7.88;4.63;;;8.20;99.90;;;;;;6157204;23;20502;-89
2021/12/14 09:08:55;;;;;;;4.10;2.60;;;8.20;99.90;;;;;;6157621;22;20100;-87
2021/12/14 09:11:23;;;;;;;10.70;5.25;;;8.30;99.90;;;;;;6157647;23;20016;-87
2021/12/14 09:13:49;;;;;;;6.80;4.72;;;8.30;99.90;;;;;;6157927;23;20027;-88
2021/12/14 09:16:20;;;;;;;1.60;1.10;;;8.30;99.90;;;;;;6156606;22;20086;-88
2021/12/14 09:18:50;;;;;;;6.00;3.53;;;8.20;99.90;;;;;;6157697;23;20012;-87
2021/12/14 09:21:23;;;;;;;8.55;4.18;;;8.20;99.90;;;;;;6157898;23;20108;-88
2021/12/14 09:23:55;;;;;;;6.53;3.47;;;8.30;99.90;;;;;;6158602;23;20358;-88
2021/12/14 09:26:24;;;;;;;4.70;2.50;;;8.20;99.90;;;;;;6157720;22;20114;-88
2021/12/14 09:28:50;;;;;;;4.13;2.88;;;8.30;99.90;;;;;;6158819;22;20009;-86
2021/12/14 09:31:21;;;;;;;7.28;4.43;;;8.30;99.90;;;;;;6159747;23;20012;-87
2021/12/14 09:33:48;;;;;;;4.93;3.00;;;8.30;99.90;;;;;;6155856;23;20468;-86
2021/12/14 09:36:15;;;;;;;7.85;4.35;;;8.30;99.90;;;;;;6156963;23;20048;-87
2021/12/14 09:38:44;;;;;;;4.60;2.92;;;8.30;99.90;;;;;;6157461;23;20023;-86
2021/12/14 09:41:15;;;;;;;9.27;5.00;;;8.30;99.90;;;;;;6157999;22;20353;-86
2021/12/14 09:43:41;;;;;;;4.88;3.38;;;8.40;99.90;;;;;;6156322;22;20017;-87
2021/12/14 09:46:08;;;;;;;8.57;4.72;;;8.40;99.90;;;;;;6156934;22;20019;-88
2021/12/14 09:48:38;;;;;;;11.65;6.22;;;8.40;99.90;;;;;;6157953;23;20023;-88
2021/12/14 09:51:08;;;;;;;0.80;0.80;;;8.40;99.90;;;;;;6157096;22;20092;-87
2021/12/14 09:53:39;;;;;;;5.43;3.45;;;8.50;99.90;;;;;;6158767;22;20021;-88
2021/12/14 09:56:07;;;;;;;6.03;3.50;;;8.50;99.90;;;;;;6159270;23;20013;-87
2021/12/14 09:58:37;;;;;;;9.10;2.80;;;8.50;99.90;;;;;;6158985;22;20044;-86
2021/12/14 10:01:15;;;;;;;11.07;5.72;;;8.60;99.90;;;;;;6159310;23;20445;-87
2021/12/14 10:03:43;;;;;;;6.05;3.83;;;8.50;99.90;;;;;;6159006;22;20029;-87
2021/12/14 10:06:12;;;;;;;14.82;7.82;;;8.50;99.90;;;;;;6158944;23;20024;-88
2021/12/14 10:08:46;;;;;;;5.50;3.20;;;8.50;99.90;;;;;;6158813;22;20012;-87
2021/12/14 10:11:26;;;;;;;12.02;6.03;;;8.50;99.90;;;;;;6159123;23;20095;-86
2021/12/14 10:13:55;;;;;;;4.15;2.67;;;8.50;99.90;;;;;;6184500;23;20085;-86
2021/12/14 10:16:21;;;;;;;8.05;4.30;;;8.50;99.90;;;;;;6180450;22;20023;-86
2021/12/14 10:18:51;;;;;;;1.98;1.65;;;8.40;99.90;;;;;;6158371;22;20336;-86
2021/12/14 10:21:30;;;;;;;11.30;4.20;;;8.40;99.90;;;;;;6159015;23;20061;-87
2021/12/14 10:23:59;;;;;;;7.45;3.03;;;8.40;99.90;;;;;;6183386;22;20027;-87
2021/12/14 10:26:30;;;;;;;7.00;3.42;;;8.40;99.90;;;;;;6158109;22;20013;-86
2021/12/14 10:29:12;;;;;;;11.00;5.25;;;8.40;99.90;;;;;;6158803;22;20016;-86
2021/12/14 10:31:48;;;;;;;1.65;1.13;;;8.40;99.90;;;;;;6159663;22;20013;-88
2021/12/14 10:34:25;;;;;;;15.30;5.78;;;8.40;99.90;;;;;;6159849;22;20044;-86
2021/12/14 10:37:09;;;;;;;9.40;4.32;;;8.40;99.90;;;;;;6159418;22;20016;-86
2021/12/14 10:39:44;;;;;;;4.37;2.30;;;8.40;99.90;;;;;;6159119;23;20061;-86
2021/12/14 10:45:02;;;;;;;8.20;4.88;;;8.40;99.90;;;;;;6182892;23;20370;-85
2021/12/14 10:47:30;;;;;;;11.48;3.92;;;8.30;99.90;;;;;;6183092;22;20044;-85
2021/12/14 10:50:08;;;;;;;4.75;3.83;;;8.30;99.90;;;;;;6158979;22;20012;-85
2021/12/14 10:52:34;;;;;;;5.63;3.35;;;8.30;99.90;;;;;;6159007;22;20012;-85
2021/12/14 10:55:21;;;;;;;7.45;3.85;;;8.30;99.90;;;;;;6157167;22;20020;-84
2021/12/14 10:57:47;;;;;;;14.20;4.95;;;8.30;99.90;;;;;;6158549;23;20021;-86
2021/12/14 11:00:32;;;;;;;16.00;8.48;;;8.40;99.90;;;;;;6159161;22;20056;-87
2021/12/14 11:03:09;;;;;;;10.65;4.82;;;8.40;99.90;;;;;;6159129;23;20019;-87
2021/12/14 11:05:36;;;;;;;3.55;2.53;;;8.40;99.90;;;;;;6181360;23;20460;-87
2021/12/14 11:08:18;;;;;;;7.07;3.72;;;8.40;99.90;;;;;;6181636;22;20044;-87
2021/12/14 11:10:44;;;;;;;4.85;4.05;;;8.40;99.90;;;;;;6157305;22;20319;-87
2021/12/14 11:13:12;;;;;;;10.70;5.70;;;8.40;99.90;;;;;;6182400;22;20028;-87
2021/12/14 11:15:45;;;;;;;3.40;2.38;;;8.40;99.90;;;;;;6183165;23;20021;-87
2021/12/14 11:18:16;;;;;;;9.77;3.53;;;8.40;99.90;;;;;;6158215;23;20028;-87
2021/12/14 11:21:05;;;;;;;10.27;4.80;;;8.50;99.90;;;;;;6183812;22;20387;-87
2021/12/14 11:23:40;;;;;;;2.63;2.08;;;8.40;99.90;;;;;;6157750;22;20097;-87
2021/12/14 11:26:21;;;;;;;5.15;3.00;;;8.50;99.90;;;;;;6158133;22;20388;-87
2021/12/14 11:28:51;;;;;;;7.65;4.03;;;8.50;99.90;;;;;;6158168;23;20346;-87
2021/12/14 11:31:28;;;;;;;10.80;4.60;;;8.50;99.90;;;;;;6158544;22;20008;-87
2021/12/14 11:34:08;;;;;;;6.90;3.25;;;8.50;99.90;;;;;;6158710;23;20023;-87
2021/12/14 11:36:44;;;;;;;4.70;1.90;;;8.50;99.90;;;;;;6157668;22;20016;-88
2021/12/14 11:39:23;;;;;;;2.20;1.20;;;8.60;99.90;;;;;;6157937;23;20016;-88
2021/12/14 11:41:53;;;;;;;8.65;5.00;;;8.50;99.90;;;;;;6158022;23;20113;-88
2021/12/14 11:44:30;;;;;;;7.78;4.38;;;8.50;99.90;;;;;;6157955;22;20016;-87
2021/12/14 11:47:08;;;;;;;5.50;2.65;;;8.50;99.90;;;;;;6157548;22;20008;-87
2021/12/14 11:49:55;;;;;;;5.25;3.28;;;8.50;99.90;;;;;;6157663;22;20055;-88
2021/12/14 11:52:52;;;;;;;4.20;2.53;;;8.50;99.90;;;;;;6155824;23;20021;-87
2021/12/14 11:55:49;;;;;;;7.78;4.25;;;8.50;99.90;;;;;;6157629;22;20016;-88
2021/12/14 11:58:36;;;;;;;9.40;4.97;;;8.50;99.90;;;;;;6180455;22;20070;-88
2021/12/14 12:01:21;;;;;;;13.80;5.47;;;8.60;99.90;;;;;;6157646;23;20209;-88
2021/12/14 12:03:58;;;;;;;9.63;4.05;;;8.60;99.90;;;;;;6157530;23;20138;-87
2021/12/14 12:11:55;;;;;;;7.03;3.58;;;8.60;99.90;;;;;;6183878;23;20021;-90
2021/12/14 12:14:29;;;;;;;4.90;2.33;;;8.80;99.90;;;;;;6159590;23;20055;-89
2021/12/14 12:17:28;;;;;;;13.10;5.47;;;8.60;99.90;;;;;;6161309;23;20016;-89
2021/12/14 12:19:59;;;;;;;13.15;7.00;;;8.70;99.90;;;;;;6160089;22;20032;-88
2021/12/14 12:22:32;;;;;;;2.78;1.80;;;8.60;99.90;;;;;;6160881;23;20021;-89
2021/12/14 12:25:05;;;;;;;9.50;5.00;;;8.60;99.90;;;;;;6161646;23;20015;-89
2021/12/14 12:27:44;;;;;;;3.17;2.40;;;8.60;99.90;;;;;;6161214;22;20112;-89
2021/12/14 12:30:31;;;;;;;5.72;2.40;;;8.70;99.90;;;;;;6186429;23;20038;-89
2021/12/14 12:33:00;;;;;;;10.63;4.97;;;8.70;99.90;;;;;;6161192;22;20319;-89
2021/12/14 12:35:41;;;;;;;2.08;1.58;;;8.70;99.90;;;;;;6160575;22;20017;-89
2021/12/14 12:38:23;;;;;;;5.38;3.17;;;8.70;99.90;;;;;;6161254;23;20027;-88
2021/12/14 12:41:05;;;;;;;2.65;1.67;;;8.70;99.90;;;;;;6161069;22;20024;-88
2021/12/14 12:44:00;;;;;;;2.85;1.55;;;8.70;99.90;;;;;;6161193;23;20017;-88
2021/12/14 12:46:31;;;;;;;6.57;3.75;;;8.70;99.90;;;;;;6145647;22;20013;-89
2021/12/14 12:49:07;;;;;;;4.28;2.63;;;8.70;99.90;;;;;;6186261;22;20016;-87
2021/12/14 12:51:58;;;;;;;3.08;1.77;;;8.80;99.90;;;;;;6186857;23;20017;-90
2021/12/14 12:54:29;;;;;;;4.25;2.97;;;8.70;99.90;;;;;;6161235;23;20023;-89
2021/12/14 12:57:14;;;;;;;3.28;2.28;;;8.80;99.90;;;;;;6160270;23;20024;-88
2021/12/14 12:59:48;;;;;;;8.33;4.47;;;8.80;99.90;;;;;;6159856;23;20020;-88
2021/12/14 13:02:25;;;;;;;4.83;3.00;;;8.80;99.90;;;;;;6161135;23;20324;-88
2021/12/14 13:05:18;;;;;;;3.90;2.25;;;8.80;99.90;;;;;;6185092;22;20017;-89
2021/12/14 13:07:52;;;;;;;4.32;2.97;;;8.80;99.90;;;;;;6159674;22;20095;-86
2021/12/14 13:10:27;;;;;;;3.70;2.10;;;8.80;99.90;;;;;;6159872;23;20009;-88
2021/12/14 13:13:10;;;;;;;1.15;1.05;;;8.80;99.90;;;;;;6160582;22;20021;-89
2021/12/14 13:15:46;;;;;;;1.23;1.13;;;8.80;99.90;;;;;;6160713;23;20021;-88
2021/12/14 13:18:19;;;;;;;6.15;3.85;;;8.90;99.90;;;;;;6160481;23;20383;-88
2021/12/14 13:20:48;;;;;;;8.18;4.55;;;8.80;99.90;;;;;;6161679;22;20023;-90
2021/12/14 13:23:14;;;;;;;5.38;2.60;;;8.90;99.90;;;;;;6185641;22;20441;-89
2021/12/14 13:25:43;;;;;;;9.82;5.10;;;8.90;99.90;;;;;;6161118;23;20027;-89
2021/12/14 13:28:09;;;;;;;5.05;3.30;;;8.90;99.90;;;;;;6160482;23;20035;-88
2021/12/14 13:30:35;;;;;;;6.18;3.28;;;8.90;99.90;;;;;;6160478;23;20048;-88
2021/12/14 13:33:01;;;;;;;9.57;5.30;;;8.90;99.90;;;;;;6160743;23;20024;-86
2021/12/14 13:35:35;;;;;;;2.95;2.40;;;8.90;99.90;;;;;;6160721;22;20048;-87
2021/12/14 13:38:06;;;;;;;4.32;2.63;;;8.90;99.90;;;;;;6160216;23;20020;-87
2021/12/14 13:40:39;;;;;;;1.63;0.70;;;8.90;99.90;;;;;;6160304;23;20016;-87
2021/12/14 13:43:11;;;;;;;0.88;0.73;;;8.90;99.90;;;;;;6185080;22;20086;-87
2021/12/14 13:46:00;;;;;;;8.10;3.85;;;8.90;99.90;;;;;;6159749;23;20100;-88
2021/12/14 13:48:30;;;;;;;0.43;0.43;;;8.90;99.90;;;;;;6158021;22;20070;-88
2021/12/14 13:51:04;;;;;;;6.38;3.35;;;9.00;99.90;;;;;;6159462;22;20096;-88
2021/12/14 13:53:29;;;;;;;4.68;3.30;;;9.00;99.90;;;;;;6184128;23;20504;-88
2021/12/14 13:56:04;;;;;;;3.33;2.03;;;8.90;99.90;;;;;;6159259;22;20020;-88
2021/12/14 13:58:32;;;;;;;2.03;1.10;;;9.00;99.90;;;;;;6164422;22;20012;-91
2021/12/14 14:01:08;;;;;;;3.63;2.22;;;9.00;99.90;;;;;;6162058;23;20013;-87
2021/12/14 14:03:41;;;;;;;7.03;3.80;;;9.00;99.90;;;;;;6184884;23;20020;-87